Colby, Washington
Current Conditions -  °F | °C
As of 2:55 AM on Thursday 23 Oct 2014 (Local Time) from KPWT Reporting Station
Broken Clouds Broken Clouds  
Wind Chill: 52°   Ceiling: 6500
Heat Index: 52°   Visibility: 10mi
Dew Point: 50°   Wind: 9mph
Humidity: 94%   Direction: 180°S
Pressure: 29.73"   Gusts: NA
Location:  47.5378°N, 122.589°W
Report Text: KPWT 230955Z AUTO 18008KT 10SM FEW034 BKN065 BKN070 11/10 A2973 RMK AO1
Loading
Personal Weather Stations






























Interactive Weather Map
Tropical Storm Tracking
New forecast layout! Learn more

10-Day Weather Forecast

Advertisements
Track Severe Weather on mobile